Time;durP1;ratioP1;P1;durP2;ratioP2;P2;SDS_P1;SDS_P2;PMS_P1;PMS_P2;Temp;Humidity;BMP_temperature;BMP_pressure;BME280_temperature;BME280_humidity;BME280_pressure;Samples;Min_cycle;Max_cycle;Signal;HPM_P1;HPM_P2
2024/01/27 00:01:24;;;;;;;0.20;0.20;;;;;;;5.28;67.79;103549.19;5040369;28;20033;-80
2024/01/27 00:03:50;;;;;;;0.40;0.40;;;;;;;5.25;68.55;103541.16;5045026;28;20053;-78
2024/01/27 00:06:16;;;;;;;0.10;0.10;;;;;;;5.29;67.69;103536.09;5050297;28;20033;-79
2024/01/27 00:08:42;;;;;;;0.40;0.40;;;;;;;5.22;68.83;103544.56;5048932;28;20040;-78
2024/01/27 00:11:10;;;;;;;0.95;0.95;;;;;;;5.25;68.52;103543.78;5058301;28;20052;-80
2024/01/27 00:13:37;;;;;;;0.10;0.10;;;;;;;5.29;67.65;103543.09;5041235;28;20088;-80
2024/01/27 00:16:03;;;;;;;0.10;0.10;;;;;;;5.28;67.94;103544.84;5040576;28;20041;-81
2024/01/27 00:18:30;;;;;;;0.20;0.20;;;;;;;5.29;68.61;103548.34;5041235;28;20025;-79
2024/01/27 00:20:56;;;;;;;0.20;0.20;;;;;;;5.26;68.48;103545.56;5050721;28;20017;-80
2024/01/27 00:23:22;;;;;;;1.10;1.10;;;;;;;5.26;67.79;103545.56;5049997;28;20079;-79
2024/01/27 00:25:48;;;;;;;0.20;0.20;;;;;;;5.24;68.35;103549.88;5054886;28;20397;-79
2024/01/27 00:28:14;;;;;;;0.20;0.20;;;;;;;5.25;68.28;103549.06;5058723;28;20030;-79
2024/01/27 00:30:40;;;;;;;0.10;0.10;;;;;;;5.26;68.77;103551.75;5061710;28;20044;-81
2024/01/27 00:33:07;;;;;;;0.20;0.20;;;;;;;5.27;68.23;103557.88;5062631;28;20037;-80
2024/01/27 00:35:33;;;;;;;0.68;0.68;;;;;;;5.26;68.77;103558.72;5054918;28;20060;-79
2024/01/27 00:37:59;;;;;;;0.10;0.10;;;;;;;5.29;68.82;103553.63;5049104;28;20021;-81
2024/01/27 00:40:25;;;;;;;0.20;0.20;;;;;;;5.31;68.82;103549.34;5056690;28;20025;-78
2024/01/27 00:42:51;;;;;;;0.10;0.10;;;;;;;5.30;68.74;103564.19;5053528;28;20040;-81
2024/01/27 00:45:18;;;;;;;0.10;0.10;;;;;;;5.31;69.13;103559.84;5046664;28;20378;-81
2024/01/27 00:47:44;;;;;;;0.10;0.10;;;;;;;5.34;68.70;103554.72;5040030;28;20108;-81
2024/01/27 00:50:11;;;;;;;0.17;0.17;;;;;;;5.32;68.58;103545.84;5043100;28;20095;-80
2024/01/27 00:52:37;;;;;;;0.10;0.10;;;;;;;5.32;68.89;103559.00;5043131;28;20500;-80
2024/01/27 00:55:03;;;;;;;0.20;0.20;;;;;;;5.34;68.81;103552.97;5045304;28;20061;-80
2024/01/27 00:57:29;;;;;;;0.13;0.13;;;;;;;5.35;69.13;103556.53;5042276;28;20032;-81
2024/01/27 00:59:56;;;;;;;4.75;0.70;;;;;;;5.34;68.78;103562.59;5045535;28;20029;-81
2024/01/27 01:02:22;;;;;;;0.10;0.10;;;;;;;5.29;68.59;103562.38;5042596;28;20454;-81
2024/01/27 01:04:48;;;;;;;1.85;1.75;;;;;;;5.24;68.65;103568.28;5044697;28;20033;-81
2024/01/27 01:07:14;;;;;;;0.30;0.30;;;;;;;5.15;68.68;103567.00;5044371;28;20024;-81
2024/01/27 01:09:40;;;;;;;0.10;0.10;;;;;;;5.11;68.62;103567.72;5043889;28;20649;-81
2024/01/27 01:12:07;;;;;;;0.10;0.10;;;;;;;5.04;68.33;103565.63;5043696;28;20034;-81
2024/01/27 01:14:33;;;;;;;0.10;0.10;;;;;;;4.96;68.61;103565.25;5044001;28;20044;-80
2024/01/27 01:16:59;;;;;;;0.20;0.20;;;;;;;4.94;68.88;103556.41;5043930;28;20097;-80
2024/01/27 01:19:26;;;;;;;0.10;0.10;;;;;;;4.95;68.84;103555.56;5043833;28;20025;-80
2024/01/27 01:21:52;;;;;;;0.30;0.30;;;;;;;4.92;69.33;103558.06;5043128;28;20091;-81
2024/01/27 01:24:18;;;;;;;0.20;0.20;;;;;;;4.94;68.95;103550.25;5042993;28;20121;-79
2024/01/27 01:26:45;;;;;;;0.10;0.10;;;;;;;4.94;69.24;103553.78;5039688;28;20713;-80
2024/01/27 01:29:11;;;;;;;0.10;0.10;;;;;;;5.00;68.19;103556.69;5039877;28;20463;-76
2024/01/27 01:31:37;;;;;;;1.38;0.52;;;;;;;4.96;68.92;103557.38;5039454;28;20056;-78
2024/01/27 01:34:03;;;;;;;0.20;0.20;;;;;;;5.00;69.32;103563.69;5038557;28;20050;-79
2024/01/27 01:36:29;;;;;;;0.10;0.10;;;;;;;5.03;69.09;103574.31;5038145;28;20032;-79
2024/01/27 01:38:55;;;;;;;0.17;0.17;;;;;;;4.97;69.36;103558.28;5038388;28;20037;-80
2024/01/27 01:41:21;;;;;;;0.20;0.20;;;;;;;5.00;68.61;103561.06;5038885;28;20104;-79
2024/01/27 01:43:48;;;;;;;0.10;0.10;;;;;;;4.94;69.25;103566.91;5038315;28;20040;-79
2024/01/27 01:46:14;;;;;;;0.20;0.20;;;;;;;4.97;68.24;103568.78;5039162;28;20554;-79
2024/01/27 01:48:40;;;;;;;0.20;0.20;;;;;;;4.93;69.10;103564.22;5038224;28;20030;-80
2024/01/27 01:51:07;;;;;;;0.20;0.20;;;;;;;4.93;69.09;103561.59;5039286;28;20037;-80
2024/01/27 01:53:33;;;;;;;0.47;0.47;;;;;;;4.91;68.61;103557.97;5037959;28;20124;-81
2024/01/27 01:56:00;;;;;;;0.20;0.20;;;;;;;4.87;68.66;103570.06;5038477;28;20084;-79
2024/01/27 01:58:33;;;;;;;0.20;0.20;;;;;;;4.84;68.60;103565.56;5037574;28;20017;-81
2024/01/27 02:01:00;;;;;;;0.20;0.20;;;;;;;4.83;68.63;103569.00;5035183;28;20041;-79
2024/01/27 02:03:27;;;;;;;0.20;0.20;;;;;;;4.79;68.86;103574.97;5038783;28;20124;-80
2024/01/27 02:05:53;;;;;;;0.20;0.20;;;;;;;4.78;68.85;103581.03;5046846;28;20033;-80
2024/01/27 02:08:19;;;;;;;0.10;0.10;;;;;;;4.72;68.95;103572.84;5042926;28;20095;-77
2024/01/27 02:10:46;;;;;;;0.10;0.10;;;;;;;4.70;69.59;103570.16;5040130;28;20029;-78
2024/01/27 02:15:53;;;;;;;0.20;0.20;;;;;;;4.71;69.48;103581.59;5103788;27;1268193;-79
2024/01/27 02:18:20;;;;;;;0.20;0.20;;;;;;;4.76;69.00;103580.09;5118178;28;20031;-81
2024/01/27 02:20:47;;;;;;;0.43;0.43;;;;;;;4.75;69.71;103587.88;5126834;28;20092;-81
2024/01/27 02:23:13;;;;;;;0.20;0.20;;;;;;;4.74;69.95;103586.97;5124877;28;20128;-80
2024/01/27 02:25:39;;;;;;;0.20;0.20;;;;;;;4.75;69.61;103583.53;5127311;28;20029;-82
2024/01/27 02:28:05;;;;;;;0.20;0.20;;;;;;;4.75;69.30;103573.03;5135846;28;20031;-80
2024/01/27 02:30:32;;;;;;;0.30;0.30;;;;;;;4.74;69.53;103576.47;5134863;28;20028;-79
2024/01/27 02:32:58;;;;;;;2.10;1.17;;;;;;;4.74;69.58;103580.84;5133778;28;20023;-79
2024/01/27 02:35:25;;;;;;;0.10;0.10;;;;;;;4.72;69.64;103575.47;5134552;28;20035;-78
2024/01/27 02:37:51;;;;;;;0.15;0.15;;;;;;;4.71;70.22;103565.84;5125634;28;20179;-80
2024/01/27 02:40:17;;;;;;;0.28;0.28;;;;;;;4.74;69.45;103571.22;5123602;28;20039;-79
2024/01/27 02:42:43;;;;;;;0.20;0.20;;;;;;;4.74;69.78;103578.22;5123165;28;20035;-80
2024/01/27 02:45:11;;;;;;;0.10;0.10;;;;;;;4.69;70.11;103578.88;5128050;28;20031;-80
2024/01/27 02:47:38;;;;;;;0.73;0.73;;;;;;;4.72;70.29;103583.38;5133566;28;20118;-80
2024/01/27 02:50:06;;;;;;;0.10;0.10;;;;;;;4.72;70.11;103582.47;5134571;28;20430;-78
2024/01/27 02:52:32;;;;;;;0.10;0.10;;;;;;;4.72;69.87;103578.09;5127776;28;20043;-79
2024/01/27 02:54:59;;;;;;;0.20;0.20;;;;;;;4.70;69.95;103582.41;5133946;28;20039;-77
2024/01/27 02:57:25;;;;;;;0.17;0.17;;;;;;;4.65;69.83;103582.19;5134470;28;20525;-79
2024/01/27 02:59:51;;;;;;;0.20;0.20;;;;;;;4.65;69.73;103573.41;5136312;28;20027;-78
2024/01/27 03:02:17;;;;;;;0.10;0.10;;;;;;;4.65;69.46;103576.94;5130171;28;20072;-77
2024/01/27 03:04:44;;;;;;;0.20;0.20;;;;;;;4.63;69.68;103570.69;5134561;28;20501;-78
2024/01/27 03:07:10;;;;;;;0.20;0.20;;;;;;;4.62;69.77;103583.75;5132878;28;20486;-77
2024/01/27 03:09:36;;;;;;;0.20;0.20;;;;;;;4.59;69.15;103579.25;5127240;28;20035;-77
2024/01/27 03:12:02;;;;;;;0.20;0.20;;;;;;;4.52;70.27;103585.03;5128104;28;20031;-78
2024/01/27 03:14:29;;;;;;;0.20;0.20;;;;;;;4.51;70.16;103584.13;5132605;28;20468;-76
2024/01/27 03:16:55;;;;;;;0.20;0.20;;;;;;;4.53;69.86;103577.22;5126523;28;20038;-77
2024/01/27 03:19:21;;;;;;;0.20;0.20;;;;;;;4.52;70.38;103579.78;5117247;28;20532;-79
2024/01/27 03:21:48;;;;;;;0.20;0.20;;;;;;;4.49;70.61;103584.88;5131190;28;20062;-80
2024/01/27 03:24:14;;;;;;;0.20;0.20;;;;;;;4.53;70.60;103587.72;5133562;28;20024;-80
2024/01/27 03:26:40;;;;;;;0.20;0.20;;;;;;;4.53;70.54;103577.22;5123796;28;20024;-79
2024/01/27 03:29:06;;;;;;;0.10;0.10;;;;;;;4.48;70.85;103578.72;5114677;28;20053;-79
2024/01/27 03:31:34;;;;;;;0.20;0.20;;;;;;;4.50;70.97;103592.84;5119890;28;20024;-79
2024/01/27 03:34:01;;;;;;;0.20;0.20;;;;;;;4.56;70.77;103586.06;5111042;28;20036;-81
2024/01/27 03:36:28;;;;;;;0.20;0.20;;;;;;;4.55;70.83;103582.56;5111123;28;20055;-79
2024/01/27 03:38:55;;;;;;;0.10;0.10;;;;;;;4.57;70.31;103587.88;5120144;28;20055;-81
2024/01/27 03:41:22;;;;;;;0.20;0.20;;;;;;;4.53;70.41;103589.44;5120452;28;20041;-80
2024/01/27 03:43:48;;;;;;;0.10;0.10;;;;;;;4.47;70.86;103592.66;5116899;28;20053;-81
2024/01/27 03:46:14;;;;;;;0.10;0.10;;;;;;;4.51;70.60;103581.50;5110764;28;20502;-81
2024/01/27 03:48:40;;;;;;;0.20;0.20;;;;;;;4.49;71.06;103596.28;5110103;28;20039;-81
2024/01/27 03:51:07;;;;;;;0.20;0.20;;;;;;;4.51;71.18;103596.34;5110353;28;20032;-80
2024/01/27 03:53:33;;;;;;;0.10;0.10;;;;;;;4.54;71.00;103597.41;5118521;28;20034;-80
2024/01/27 03:56:02;;;;;;;0.10;0.10;;;;;;;4.44;71.20;103591.63;5119555;28;20082;-78
2024/01/27 03:58:28;;;;;;;0.20;0.20;;;;;;;4.44;71.58;103592.53;5115547;28;20044;-80
2024/01/27 04:00:56;;;;;;;1.63;1.55;;;;;;;4.40;70.93;103579.16;5114874;28;20053;-80
2024/01/27 04:03:23;;;;;;;0.20;0.20;;;;;;;4.32;71.28;103579.66;5115366;28;20512;-80
2024/01/27 04:05:49;;;;;;;0.20;0.20;;;;;;;4.32;71.26;103578.78;5119470;27;20031;-80
2024/01/27 04:08:15;;;;;;;0.20;0.20;;;;;;;4.32;71.48;103589.28;5111390;28;20023;-80
2024/01/27 04:10:42;;;;;;;0.13;0.13;;;;;;;4.29;71.60;103591.78;5098484;28;20027;-79
2024/01/27 04:13:08;;;;;;;0.20;0.20;;;;;;;4.34;71.26;103585.91;5106556;28;20047;-80
2024/01/27 04:15:38;;;;;;;0.10;0.10;;;;;;;4.32;71.22;103592.78;5116139;28;20036;-80
2024/01/27 04:18:05;;;;;;;0.68;0.68;;;;;;;4.33;71.19;103593.72;5121096;28;20502;-79
2024/01/27 04:20:32;;;;;;;0.55;0.55;;;;;;;4.32;71.07;103581.41;5113163;28;20084;-79
2024/01/27 04:22:58;;;;;;;0.20;0.20;;;;;;;4.25;71.35;103597.66;5116308;28;20035;-80
2024/01/27 04:25:24;;;;;;;0.20;0.20;;;;;;;4.27;71.58;103603.91;5117587;28;20055;-80
2024/01/27 04:27:50;;;;;;;0.30;0.30;;;;;;;4.29;71.86;103599.66;5123359;28;20054;-79
2024/01/27 04:30:16;;;;;;;0.10;0.10;;;;;;;4.26;71.39;103612.59;5112464;28;20043;-79
2024/01/27 04:32:42;;;;;;;0.20;0.20;;;;;;;4.25;71.60;103600.28;5107857;28;20063;-80
2024/01/27 04:35:10;;;;;;;0.20;0.20;;;;;;;4.20;72.06;103593.09;5114466;28;20032;-80
2024/01/27 04:37:36;;;;;;;0.60;0.60;;;;;;;4.26;71.54;103591.59;5117936;28;20050;-79
2024/01/27 04:40:05;;;;;;;0.28;0.28;;;;;;;4.29;71.64;103591.78;5119120;28;20030;-79
2024/01/27 04:42:34;;;;;;;0.15;0.15;;;;;;;4.29;71.62;103586.53;5111374;28;20087;-80
2024/01/27 04:45:00;;;;;;;0.50;0.50;;;;;;;4.29;71.69;103597.03;5118766;28;20068;-79
2024/01/27 04:47:26;;;;;;;0.73;0.73;;;;;;;4.31;71.43;103592.72;5117652;28;20031;-78
2024/01/27 04:49:53;;;;;;;0.10;0.10;;;;;;;4.30;71.86;103602.34;5112669;28;20076;-79
2024/01/27 04:52:19;;;;;;;0.40;0.40;;;;;;;4.26;71.98;103592.53;5107515;28;20085;-80
2024/01/27 04:54:46;;;;;;;0.30;0.30;;;;;;;4.27;72.17;103589.03;5117631;28;20042;-79
2024/01/27 04:57:12;;;;;;;0.50;0.50;;;;;;;4.27;71.58;103590.78;5109004;28;20031;-80
2024/01/27 04:59:38;;;;;;;0.38;0.38;;;;;;;4.25;71.95;103592.41;5117751;28;20057;-77
2024/01/27 05:02:04;;;;;;;0.30;0.30;;;;;;;4.31;72.14;103600.59;5107292;28;20036;-77
2024/01/27 05:04:31;;;;;;;0.20;0.20;;;;;;;4.34;71.80;103613.91;5111548;28;20430;-77
2024/01/27 05:06:57;;;;;;;0.20;0.20;;;;;;;4.32;71.99;103605.03;5113727;28;20024;-80
2024/01/27 05:09:23;;;;;;;0.20;0.20;;;;;;;4.31;72.58;103605.84;5118608;28;20390;-80
2024/01/27 05:11:51;;;;;;;0.10;0.10;;;;;;;4.33;71.78;103601.59;5116935;28;20034;-80
2024/01/27 05:14:17;;;;;;;0.20;0.20;;;;;;;4.31;72.04;103604.16;5114657;28;20027;-80
2024/01/27 05:16:44;;;;;;;0.20;0.20;;;;;;;4.31;72.05;103616.34;5113542;28;20044;-80
2024/01/27 05:19:11;;;;;;;0.40;0.40;;;;;;;4.31;72.36;103603.22;5114413;28;20031;-81
2024/01/27 05:21:38;;;;;;;0.10;0.10;;;;;;;4.27;72.19;103602.16;5111134;28;20035;-80
2024/01/27 05:24:04;;;;;;;0.20;0.20;;;;;;;4.26;72.04;103607.34;5107293;28;20035;-80
2024/01/27 05:26:31;;;;;;;0.20;0.20;;;;;;;4.23;72.07;103592.34;5114853;28;20119;-81
2024/01/27 05:28:57;;;;;;;0.10;0.10;;;;;;;4.23;71.90;103596.72;5116554;28;20031;-77
2024/01/27 05:31:23;;;;;;;0.20;0.20;;;;;;;4.19;71.69;103600.91;5118345;28;20081;-78
2024/01/27 05:33:49;;;;;;;0.75;0.75;;;;;;;4.20;71.93;103603.59;5100744;28;20479;-80
2024/01/27 05:36:16;;;;;;;0.20;0.20;;;;;;;4.20;71.88;103593.09;5110977;28;20040;-78
2024/01/27 05:38:42;;;;;;;1.38;1.05;;;;;;;4.21;71.81;103604.47;5124945;28;20044;-78
2024/01/27 05:41:08;;;;;;;0.20;0.20;;;;;;;4.18;71.75;103599.97;5119035;28;20035;-77
2024/01/27 05:43:34;;;;;;;1.75;1.65;;;;;;;4.18;71.73;103599.97;5125847;28;20039;-80
2024/01/27 05:46:00;;;;;;;0.28;0.28;;;;;;;4.17;71.61;103613.91;5123744;28;20028;-80
2024/01/27 05:48:27;;;;;;;0.20;0.20;;;;;;;4.15;71.83;103609.41;5117673;28;20511;-80
2024/01/27 05:51:01;;;;;;;0.20;0.20;;;;;;;4.18;71.51;103610.47;5116321;28;20039;-80
2024/01/27 05:53:28;;;;;;;0.20;0.20;;;;;;;4.12;71.55;103602.28;5118959;28;20036;-79
2024/01/27 05:55:55;;;;;;;1.65;0.90;;;;;;;4.10;71.61;103596.09;5106746;28;20399;-80
2024/01/27 05:58:21;;;;;;;0.28;0.28;;;;;;;4.08;71.85;103584.59;5109980;28;20355;-80
2024/01/27 06:00:48;;;;;;;0.60;0.60;;;;;;;4.09;71.80;103591.66;5116483;28;20032;-78
2024/01/27 06:03:14;;;;;;;0.13;0.13;;;;;;;4.08;71.66;103592.47;5116626;28;20153;-80
2024/01/27 06:05:42;;;;;;;0.17;0.17;;;;;;;4.10;71.58;103588.22;5118232;28;20023;-81
2024/01/27 06:08:08;;;;;;;0.10;0.10;;;;;;;4.14;71.23;103598.03;5111884;28;20035;-80
2024/01/27 06:10:36;;;;;;;0.13;0.13;;;;;;;4.08;72.43;103591.59;5107485;28;20020;-81
2024/01/27 06:13:03;;;;;;;0.35;0.35;;;;;;;4.12;71.95;103591.78;5099470;28;20096;-80
2024/01/27 06:15:29;;;;;;;0.10;0.10;;;;;;;4.09;72.06;103591.66;5114296;28;20031;-80
2024/01/27 06:17:57;;;;;;;0.60;0.60;;;;;;;4.13;71.95;103590.09;5108862;28;20497;-80
2024/01/27 06:20:23;;;;;;;0.10;0.10;;;;;;;4.12;71.96;103594.41;5118040;28;20031;-81
2024/01/27 06:22:49;;;;;;;0.77;0.77;;;;;;;4.11;71.81;103587.41;5104961;28;20031;-81
2024/01/27 06:25:16;;;;;;;0.15;0.15;;;;;;;4.08;72.17;103592.47;5114196;28;20068;-80
2024/01/27 06:27:43;;;;;;;0.32;0.32;;;;;;;4.07;71.78;103590.66;5112906;28;20095;-80
2024/01/27 06:30:10;;;;;;;0.20;0.20;;;;;;;4.01;71.69;103596.50;5116193;28;20474;-80
2024/01/27 06:32:36;;;;;;;0.10;0.10;;;;;;;3.99;71.63;103592.91;5115605;28;20463;-80
2024/01/27 06:35:04;;;;;;;0.20;0.20;;;;;;;3.96;71.70;103612.81;5119593;28;20023;-80
2024/01/27 06:37:30;;;;;;;0.20;0.20;;;;;;;3.95;71.67;103596.19;5131821;28;20044;-77
2024/01/27 06:39:56;;;;;;;0.40;0.40;;;;;;;3.94;71.60;103599.63;5126868;28;20039;-77
2024/01/27 06:42:22;;;;;;;0.10;0.10;;;;;;;3.93;72.05;103594.31;5115869;28;20078;-78
2024/01/27 06:44:48;;;;;;;0.57;0.57;;;;;;;3.96;71.56;103602.34;5114427;28;20474;-79
2024/01/27 06:47:14;;;;;;;0.20;0.20;;;;;;;3.97;71.27;103605.03;5117807;28;20141;-79
2024/01/27 06:49:41;;;;;;;0.20;0.20;;;;;;;3.94;72.01;103614.44;5114012;28;20501;-79
2024/01/27 06:52:07;;;;;;;0.30;0.30;;;;;;;3.92;72.03;103614.38;5114695;28;20044;-80
2024/01/27 06:54:33;;;;;;;0.17;0.17;;;;;;;3.88;72.71;103615.94;5119989;28;20038;-79
2024/01/27 06:57:00;;;;;;;0.10;0.10;;;;;;;3.95;71.80;103604.06;5110222;28;20088;-80
2024/01/27 06:59:26;;;;;;;0.10;0.10;;;;;;;3.96;72.08;103615.44;5121485;28;20330;-81
2024/01/27 07:01:53;;;;;;;0.43;0.43;;;;;;;3.89;72.04;103607.25;5120229;28;20042;-80
2024/01/27 07:04:19;;;;;;;0.30;0.30;;;;;;;3.90;72.41;103613.41;5122206;28;20478;-78
2024/01/27 07:06:45;;;;;;;2.00;1.45;;;;;;;3.96;72.26;103615.44;5114426;28;20035;-80
2024/01/27 07:09:11;;;;;;;1.15;1.15;;;;;;;3.95;72.34;103614.56;5122555;28;20501;-80
2024/01/27 07:11:38;;;;;;;0.38;0.38;;;;;;;3.97;72.21;103620.75;5118034;28;20043;-80
2024/01/27 07:14:06;;;;;;;0.10;0.10;;;;;;;3.97;71.86;103630.38;5114753;28;20107;-80
2024/01/27 07:16:33;;;;;;;0.77;0.77;;;;;;;3.94;72.33;103624.94;5112423;28;20032;-79
2024/01/27 07:19:00;;;;;;;0.10;0.10;;;;;;;3.88;72.41;103633.41;5120053;28;20717;-80
2024/01/27 07:21:28;;;;;;;0.10;0.10;;;;;;;3.88;72.94;103631.69;5115965;28;20066;-79
2024/01/27 07:23:55;;;;;;;0.10;0.10;;;;;;;3.87;72.65;103624.63;5108195;28;20545;-78
2024/01/27 07:26:21;;;;;;;0.20;0.20;;;;;;;3.92;72.22;103626.63;5110502;28;20039;-79
2024/01/27 07:28:47;;;;;;;0.30;0.30;;;;;;;3.89;73.01;103623.00;5120057;28;20047;-79
2024/01/27 07:31:14;;;;;;;0.20;0.20;;;;;;;3.91;73.38;103630.94;5119903;28;20533;-79
2024/01/27 07:33:41;;;;;;;4.75;2.75;;;;;;;3.93;73.05;103631.03;5114626;28;20034;-80
2024/01/27 07:36:07;;;;;;;0.43;0.43;;;;;;;3.99;72.91;103627.00;5113238;28;20042;-78
2024/01/27 07:38:33;;;;;;;2.38;0.95;;;;;;;4.03;72.98;103628.94;5116243;28;20130;-79
2024/01/27 07:40:59;;;;;;;0.15;0.15;;;;;;;4.05;72.92;103631.69;5120148;28;20039;-79
2024/01/27 07:43:27;;;;;;;0.20;0.20;;;;;;;4.04;72.91;103633.38;5113185;28;20027;-79
2024/01/27 07:45:54;;;;;;;0.20;0.20;;;;;;;4.10;72.79;103624.94;5118603;28;20131;-78
2024/01/27 07:48:20;;;;;;;0.20;0.20;;;;;;;4.11;72.68;103633.72;5118552;28;20057;-78
2024/01/27 07:50:49;;;;;;;2.83;1.45;;;;;;;4.11;73.00;103628.47;5117820;28;20043;-80
2024/01/27 07:53:16;;;;;;;0.10;0.10;;;;;;;4.11;73.17;103634.63;5117484;28;20024;-78
2024/01/27 07:55:42;;;;;;;0.20;0.20;;;;;;;4.16;72.36;103633.13;5114109;28;20028;-80
2024/01/27 07:58:08;;;;;;;0.10;0.10;;;;;;;4.10;72.95;103632.81;5119349;28;20116;-80
2024/01/27 08:00:34;;;;;;;0.10;0.10;;;;;;;4.11;72.89;103626.75;5119643;28;20035;-80
2024/01/27 08:03:00;;;;;;;0.20;0.20;;;;;;;4.10;72.59;103624.94;5119245;28;20039;-80
2024/01/27 08:05:27;;;;;;;0.35;0.35;;;;;;;4.10;72.44;103631.91;5118415;28;20031;-80
2024/01/27 08:07:53;;;;;;;0.17;0.17;;;;;;;4.07;72.54;103627.41;5104020;28;20020;-78
2024/01/27 08:10:19;;;;;;;0.20;0.20;;;;;;;4.07;72.80;103627.41;5117372;28;20043;-79
2024/01/27 08:12:45;;;;;;;0.20;0.20;;;;;;;4.07;72.86;103622.16;5118992;28;20035;-79
2024/01/27 08:15:12;;;;;;;0.60;0.60;;;;;;;4.04;72.98;103630.75;5119522;28;20039;-80
2024/01/27 08:17:38;;;;;;;0.13;0.13;;;;;;;4.08;72.55;103629.19;5119934;28;20483;-80
2024/01/27 08:20:05;;;;;;;0.15;0.15;;;;;;;4.09;73.15;103620.50;5119315;28;20023;-81
2024/01/27 08:22:31;;;;;;;0.13;0.13;;;;;;;4.09;72.84;103622.22;5110805;28;20108;-80
2024/01/27 08:24:58;;;;;;;0.20;0.20;;;;;;;4.12;72.93;103620.66;5104244;28;20039;-81
2024/01/27 08:27:24;;;;;;;0.20;0.20;;;;;;;4.13;72.75;103634.69;5105118;28;20031;-81
2024/01/27 08:29:50;;;;;;;0.20;0.20;;;;;;;4.16;72.68;103637.47;5113229;28;20040;-79
2024/01/27 08:32:16;;;;;;;0.20;0.20;;;;;;;4.17;72.98;103634.91;5120424;28;20054;-79
2024/01/27 08:34:43;;;;;;;0.75;0.75;;;;;;;4.19;72.85;103638.53;5120070;28;20032;-82
2024/01/27 08:37:19;;;;;;;0.20;0.20;;;;;;;4.26;72.52;103639.75;5116627;28;20046;-80
2024/01/27 08:39:45;;;;;;;0.50;0.50;;;;;;;4.23;72.61;103654.44;5108092;28;20609;-81
2024/01/27 08:42:12;;;;;;;0.20;0.20;;;;;;;4.31;72.51;103648.78;5107674;28;20806;-81
2024/01/27 08:44:38;;;;;;;0.20;0.20;;;;;;;4.33;72.75;103651.47;5112953;28;20028;-77
2024/01/27 08:47:05;;;;;;;0.75;0.47;;;;;;;4.37;72.87;103658.66;5117696;28;20122;-77
2024/01/27 08:49:32;;;;;;;0.28;0.28;;;;;;;4.35;72.62;103655.09;5114275;28;20531;-79
2024/01/27 08:51:58;;;;;;;0.10;0.10;;;;;;;4.44;72.65;103650.28;5105928;28;20043;-79
2024/01/27 08:54:24;;;;;;;0.20;0.20;;;;;;;4.40;72.96;103647.41;5120204;28;20100;-78
2024/01/27 08:56:50;;;;;;;0.10;0.10;;;;;;;4.45;73.02;103662.59;5120013;28;20027;-80
2024/01/27 08:59:17;;;;;;;0.28;0.28;;;;;;;4.44;72.89;103665.16;5107685;28;20036;-80
2024/01/27 09:01:43;;;;;;;0.10;0.10;;;;;;;4.56;72.96;103662.22;5117361;28;20060;-81
2024/01/27 09:04:09;;;;;;;0.22;0.22;;;;;;;4.66;72.33;103662.78;5115403;28;20031;-79
2024/01/27 09:06:35;;;;;;;0.20;0.20;;;;;;;4.67;72.37;103643.56;5103885;28;20035;-79
2024/01/27 09:09:02;;;;;;;0.20;0.20;;;;;;;4.65;72.96;103655.72;5098217;28;20050;-80
2024/01/27 09:11:30;;;;;;;0.20;0.20;;;;;;;4.73;72.73;103648.22;5103752;28;20043;-80
2024/01/27 09:13:56;;;;;;;0.20;0.20;;;;;;;4.78;73.08;103651.97;5110820;28;20384;-80
2024/01/27 09:16:23;;;;;;;0.63;0.63;;;;;;;4.86;72.77;103655.00;5117516;28;20058;-78
2024/01/27 09:18:50;;;;;;;0.20;0.20;;;;;;;4.90;73.11;103666.53;5118254;28;20034;-80
2024/01/27 09:21:20;;;;;;;5.15;1.65;;;;;;;4.93;72.83;103661.44;5108048;28;20214;-80
2024/01/27 09:23:47;;;;;;;0.20;0.20;;;;;;;5.01;72.96;103665.34;5114414;28;20030;-81
2024/01/27 09:26:15;;;;;;;1.05;0.77;;;;;;;5.09;72.65;103669.22;5108252;28;20036;-79
2024/01/27 09:28:43;;;;;;;0.20;0.20;;;;;;;5.10;72.82;103673.66;5099857;28;20548;-79
2024/01/27 09:31:11;;;;;;;0.20;0.20;;;;;;;5.19;72.93;103679.34;5113308;28;20038;-79
2024/01/27 09:33:37;;;;;;;0.20;0.20;;;;;;;5.24;72.99;103673.44;5114814;28;20038;-79
2024/01/27 09:36:04;;;;;;;0.20;0.20;;;;;;;5.26;72.95;103682.25;5109743;28;20028;-81
2024/01/27 09:38:30;;;;;;;0.20;0.20;;;;;;;5.38;72.70;103677.59;5114860;28;20036;-79
2024/01/27 09:40:57;;;;;;;0.20;0.20;;;;;;;5.39;72.94;103679.41;5118938;28;20031;-80
2024/01/27 09:43:25;;;;;;;0.20;0.20;;;;;;;5.43;73.05;103686.63;5116994;28;20087;-81
2024/01/27 09:45:51;;;;;;;1.88;1.77;;;;;;;5.57;72.69;103683.72;5103392;28;20015;-80
2024/01/27 09:48:17;;;;;;;0.13;0.13;;;;;;;5.67;72.43;103688.59;5116951;28;20032;-81
2024/01/27 09:50:47;;;;;;;0.10;0.10;;;;;;;5.74;72.51;103685.41;5112745;28;20035;-81
2024/01/27 09:53:13;;;;;;;0.35;0.35;;;;;;;5.77;72.53;103685.56;5109841;28;20030;-77
2024/01/27 09:55:40;;;;;;;0.20;0.20;;;;;;;5.86;72.49;103700.84;5116065;28;20024;-83
2024/01/27 09:58:06;;;;;;;0.10;0.10;;;;;;;5.89;72.36;103694.84;5116706;28;20042;-81
2024/01/27 10:00:36;;;;;;;0.20;0.20;;;;;;;5.96;72.24;103694.28;5117847;28;20043;-79
2024/01/27 10:03:04;;;;;;;0.20;0.20;;;;;;;6.05;72.10;103710.50;5114150;28;20052;-79
2024/01/27 10:05:32;;;;;;;0.60;0.60;;;;;;;6.13;72.37;103705.59;5117878;28;20019;-78
2024/01/27 10:07:58;;;;;;;0.40;0.40;;;;;;;6.18;71.71;103706.72;5117760;28;20028;-78
2024/01/27 10:10:27;;;;;;;0.20;0.20;;;;;;;6.26;71.89;103705.31;5116810;28;20031;-78
2024/01/27 10:12:58;;;;;;;0.20;0.20;;;;;;;6.28;71.78;103713.25;5117248;28;20100;-80
2024/01/27 10:15:26;;;;;;;0.63;0.63;;;;;;;6.37;71.47;103708.41;5109188;28;21065;-79
2024/01/27 10:17:52;;;;;;;0.10;0.10;;;;;;;6.50;71.48;103712.47;5118656;28;20117;-79
2024/01/27 10:20:18;;;;;;;0.50;0.50;;;;;;;6.56;71.67;103711.84;5119208;28;20030;-80
2024/01/27 10:22:45;;;;;;;0.10;0.10;;;;;;;6.62;71.01;103709.47;5117728;28;20058;-81
2024/01/27 10:25:12;;;;;;;0.45;0.45;;;;;;;6.68;71.23;103717.66;5117935;28;20123;-79
2024/01/27 10:27:39;;;;;;;1.10;0.52;;;;;;;6.80;71.39;103715.53;5121202;28;20083;-78
2024/01/27 10:30:07;;;;;;;0.88;0.88;;;;;;;6.89;70.83;103714.09;5125509;28;20035;-80
2024/01/27 10:32:33;;;;;;;1.48;1.40;;;;;;;6.96;70.24;103710.88;5104985;28;20552;-82
2024/01/27 10:35:08;;;;;;;0.20;0.20;;;;;;;7.07;69.87;103714.84;5114035;28;20024;-79
2024/01/27 10:37:34;;;;;;;0.60;0.60;;;;;;;7.16;70.31;103710.81;5116640;28;20032;-78
2024/01/27 10:42:38;;;;;;;0.17;0.17;;;;;;;7.38;70.20;103704.66;5047150;28;20363;-82
2024/01/27 10:45:05;;;;;;;0.20;0.20;;;;;;;7.39;69.41;103703.78;5043722;28;20058;-82
2024/01/27 10:47:33;;;;;;;0.47;0.47;;;;;;;7.51;69.25;103698.09;5028729;28;20038;-81
2024/01/27 10:50:01;;;;;;;0.98;0.98;;;;;;;7.57;69.06;103696.59;5044230;28;20018;-82
2024/01/27 10:52:31;;;;;;;0.20;0.20;;;;;;;7.67;69.43;103703.13;5042619;28;20084;-82
2024/01/27 10:55:03;;;;;;;0.10;0.10;;;;;;;7.69;68.43;103708.44;5047381;28;20060;-83
2024/01/27 10:57:31;;;;;;;0.25;0.25;;;;;;;7.83;68.93;103704.59;5048478;28;20014;-82
2024/01/27 11:00:00;;;;;;;0.93;0.90;;;;;;;7.90;68.71;103703.09;5041175;28;20082;-82
2024/01/27 11:02:28;;;;;;;0.85;0.85;;;;;;;8.01;68.50;103709.69;5075259;28;20021;-82
2024/01/27 11:04:54;;;;;;;4.28;2.97;;;;;;;8.11;67.84;103713.53;5041084;28;20026;-82
2024/01/27 11:07:22;;;;;;;0.13;0.13;;;;;;;8.20;67.61;103694.47;5053392;28;20038;-82
2024/01/27 11:09:52;;;;;;;0.47;0.47;;;;;;;8.29;67.22;103694.81;5059169;28;20113;-84
2024/01/27 11:12:21;;;;;;;0.38;0.38;;;;;;;8.30;66.78;103696.63;5048435;28;20029;-83
2024/01/27 11:14:48;;;;;;;0.20;0.20;;;;;;;8.47;67.50;103693.72;5056184;28;20029;-82
2024/01/27 11:17:16;;;;;;;2.80;2.60;;;;;;;8.50;66.65;103684.16;5020155;28;20027;-82
2024/01/27 11:19:44;;;;;;;0.20;0.20;;;;;;;8.60;66.12;103690.66;5025571;28;20401;-84
2024/01/27 11:22:26;;;;;;;0.20;0.20;;;;;;;8.78;65.92;103684.19;5019058;28;20045;-82
2024/01/27 11:24:53;;;;;;;1.37;1.27;;;;;;;8.87;66.20;103682.75;5013182;28;20130;-82
2024/01/27 11:27:26;;;;;;;0.30;0.30;;;;;;;8.89;64.85;103688.97;5019739;28;20288;-84
2024/01/27 11:29:52;;;;;;;0.65;0.65;;;;;;;8.94;64.34;103691.75;5016887;28;20504;-85
2024/01/27 11:32:18;;;;;;;1.58;1.42;;;;;;;9.09;65.61;103679.91;5030095;28;20034;-84
2024/01/27 11:34:45;;;;;;;0.40;0.40;;;;;;;9.14;64.91;103678.28;5022412;28;20034;-84
2024/01/27 11:37:14;;;;;;;0.20;0.20;;;;;;;9.13;64.37;103676.47;5022555;28;20030;-84